createdAt,value
2018-06-27T00:01:35.205Z,19.33
2018-06-27T00:04:03.565Z,15.63
2018-06-27T00:06:31.997Z,15.13
2018-06-27T00:09:00.326Z,16.63
2018-06-27T00:11:28.697Z,19.60
2018-06-27T00:13:57.088Z,16.10
2018-06-27T00:16:25.423Z,19.23
2018-06-27T00:18:54.567Z,18.70
2018-06-27T00:21:23.615Z,16.80
2018-06-27T00:23:51.953Z,18.20
2018-06-27T00:26:20.331Z,13.63
2018-06-27T00:28:48.688Z,16.70
2018-06-27T00:31:17.017Z,20.60
2018-06-27T00:33:45.914Z,18.67
2018-06-27T00:36:14.001Z,18.12
2018-06-27T00:38:42.857Z,18.90
2018-06-27T00:41:11.246Z,15.93
2018-06-27T00:43:39.634Z,20.17
2018-06-27T00:46:07.796Z,17.20
2018-06-27T00:48:35.903Z,17.07
2018-06-27T00:51:04.251Z,18.43
2018-06-27T00:53:37.702Z,14.23
2018-06-27T00:56:07.065Z,20.83
2018-06-27T00:58:35.412Z,20.72
2018-06-27T01:01:03.781Z,16.67
2018-06-27T01:03:32.211Z,14.03
2018-06-27T01:06:00.501Z,21.02
2018-06-27T01:08:28.894Z,21.23
2018-06-27T01:10:57.322Z,14.97
2018-06-27T01:13:25.612Z,20.93
2018-06-27T01:15:53.987Z,19.40
2018-06-27T01:18:22.294Z,19.40
2018-06-27T01:20:50.610Z,17.37
2018-06-27T01:23:18.957Z,19.87
2018-06-27T01:25:47.271Z,16.93
2018-06-27T01:28:16.289Z,17.70
2018-06-27T01:30:45.545Z,17.73
2018-06-27T01:33:14.306Z,20.47
2018-06-27T01:35:42.693Z,21.20
2018-06-27T01:38:11.018Z,19.53
2018-06-27T01:40:39.385Z,15.93
2018-06-27T01:43:07.771Z,20.87
2018-06-27T01:45:36.118Z,18.40
2018-06-27T01:48:04.574Z,18.80
2018-06-27T01:50:32.962Z,25.03
2018-06-27T01:53:02.306Z,21.50
2018-06-27T01:55:30.605Z,18.87
2018-06-27T01:57:58.959Z,23.47
2018-06-27T02:00:27.497Z,19.53
2018-06-27T02:02:55.892Z,21.37
2018-06-27T02:05:24.325Z,26.13
2018-06-27T02:07:52.676Z,26.77
2018-06-27T02:10:21.053Z,22.33
2018-06-27T02:12:49.360Z,23.73
2018-06-27T02:15:17.453Z,20.63
2018-06-27T02:17:45.598Z,26.90
2018-06-27T02:20:14.037Z,19.73
2018-06-27T02:22:42.425Z,23.70
2018-06-27T02:25:10.817Z,22.83
2018-06-27T02:27:39.872Z,18.93
2018-06-27T02:30:08.254Z,21.57
2018-06-27T02:32:36.750Z,19.30
2018-06-27T02:35:05.159Z,19.30
2018-06-27T02:37:34.402Z,19.97
2018-06-27T02:40:02.750Z,22.00
2018-06-27T02:42:31.090Z,24.63
2018-06-27T02:44:59.463Z,21.87
2018-06-27T02:47:27.946Z,20.27
2018-06-27T02:49:57.239Z,22.50
2018-06-27T02:52:25.653Z,20.53
2018-06-27T02:54:54.270Z,18.17
2018-06-27T02:57:22.589Z,26.83
2018-06-27T02:59:50.906Z,23.30
2018-06-27T03:02:19.328Z,29.73
2018-06-27T03:04:47.715Z,19.87
2018-06-27T03:07:16.015Z,21.97
2018-06-27T03:09:44.318Z,25.60
2018-06-27T03:12:12.977Z,23.40
2018-06-27T03:14:41.305Z,25.70
2018-06-27T03:17:09.663Z,24.90
2018-06-27T03:19:37.965Z,22.80
2018-06-27T03:22:06.486Z,24.67
2018-06-27T03:24:34.809Z,25.63
2018-06-27T03:27:02.880Z,21.40
2018-06-27T03:29:30.956Z,20.90
2018-06-27T03:31:59.360Z,22.60
2018-06-27T03:34:27.669Z,27.33
2018-06-27T03:36:56.306Z,23.83
2018-06-27T03:39:25.059Z,26.00
2018-06-27T03:41:53.422Z,26.67
2018-06-27T03:44:21.721Z,24.40
2018-06-27T03:46:50.897Z,23.33
2018-06-27T03:49:19.230Z,25.43
2018-06-27T03:51:47.807Z,21.70
2018-06-27T03:54:16.253Z,25.03
2018-06-27T03:56:45.545Z,24.07
2018-06-27T03:59:13.905Z,23.93
2018-06-27T04:01:42.293Z,23.33
2018-06-27T04:04:10.637Z,26.27
2018-06-27T04:06:38.965Z,25.60
2018-06-27T04:09:11.653Z,28.87
2018-06-27T04:11:40.694Z,23.60
2018-06-27T04:14:08.993Z,27.40
2018-06-27T04:16:37.961Z,27.67
2018-06-27T04:19:06.485Z,24.90
2018-06-27T04:21:34.805Z,22.07
2018-06-27T04:24:03.237Z,26.03
2018-06-27T04:26:31.581Z,26.87
2018-06-27T04:29:00.006Z,26.60
2018-06-27T04:31:28.385Z,25.60
2018-06-27T04:33:56.741Z,24.97
2018-06-27T04:36:25.506Z,28.57
2018-06-27T04:38:53.617Z,22.90
2018-06-27T04:41:22.004Z,24.77
2018-06-27T04:43:50.335Z,20.97
2018-06-27T04:46:18.452Z,26.53
2018-06-27T04:48:46.749Z,25.60
2018-06-27T04:51:15.065Z,25.50
2018-06-27T04:53:43.788Z,28.67
2018-06-27T04:56:12.137Z,27.53
2018-06-27T04:58:40.484Z,27.50
2018-06-27T05:01:09.377Z,22.37
2018-06-27T05:03:37.721Z,25.07
2018-06-27T05:06:06.067Z,24.93
2018-06-27T05:08:34.433Z,32.23
2018-06-27T05:11:02.766Z,25.10
2018-06-27T05:13:31.166Z,29.80
2018-06-27T05:15:59.618Z,30.03
2018-06-27T05:18:28.005Z,27.33
2018-06-27T05:20:57.311Z,28.13
2018-06-27T05:23:25.665Z,24.90
2018-06-27T05:25:53.965Z,27.03
2018-06-27T05:28:22.331Z,26.40
2018-06-27T05:30:50.749Z,24.90
2018-06-27T05:33:19.154Z,24.67
2018-06-27T05:35:47.502Z,28.37
2018-06-27T05:38:15.882Z,25.40
2018-06-27T05:40:44.495Z,24.90
2018-06-27T05:43:12.910Z,28.63
2018-06-27T05:45:45.669Z,25.43
2018-06-27T05:48:13.990Z,25.63
2018-06-27T05:50:42.837Z,23.17
2018-06-27T05:53:11.290Z,23.90
2018-06-27T05:55:40.249Z,20.93
2018-06-27T05:58:08.668Z,25.23
2018-06-27T06:00:37.059Z,23.47
2018-06-27T06:03:05.466Z,23.63
2018-06-27T06:05:33.862Z,25.67
2018-06-27T06:08:02.230Z,26.73
2018-06-27T06:10:30.602Z,27.27
2018-06-27T06:12:59.593Z,25.50
2018-06-27T06:15:28.533Z,27.73
2018-06-27T06:17:57.337Z,23.70
2018-06-27T06:20:25.638Z,30.83
2018-06-27T06:22:53.973Z,24.77
2018-06-27T06:25:22.296Z,29.10
2018-06-27T06:27:50.573Z,27.73
2018-06-27T06:30:18.885Z,23.17
2018-06-27T06:32:47.185Z,23.83
2018-06-27T06:35:15.521Z,23.53
2018-06-27T06:37:44.104Z,26.17
2018-06-27T06:40:12.764Z,21.67
2018-06-27T06:42:41.049Z,27.27
2018-06-27T06:45:09.381Z,23.80
2018-06-27T06:47:38.400Z,23.63
2018-06-27T06:50:06.688Z,27.23
2018-06-27T06:52:35.745Z,24.73
2018-06-27T06:55:04.345Z,25.17
2018-06-27T06:57:33.259Z,23.70
2018-06-27T07:00:01.714Z,24.40
2018-06-27T07:02:30.021Z,23.87
2018-06-27T07:04:58.576Z,26.50
2018-06-27T07:07:27.129Z,22.47
2018-06-27T07:09:56.548Z,26.80
2018-06-27T07:12:25.873Z,30.03
2018-06-27T07:14:54.642Z,26.73
2018-06-27T07:17:23.337Z,29.77
2018-06-27T07:19:51.981Z,22.70
2018-06-27T07:22:20.333Z,20.63
2018-06-27T07:24:48.658Z,28.40
2018-06-27T07:27:16.949Z,24.27
2018-06-27T07:29:45.270Z,23.97
2018-06-27T07:32:14.422Z,27.37
2018-06-27T07:34:42.936Z,25.93
2018-06-27T07:37:10.994Z,26.33
2018-06-27T07:39:39.285Z,29.10
2018-06-27T07:42:09.166Z,26.73
2018-06-27T07:44:37.358Z,26.40
2018-06-27T07:47:05.856Z,25.77
2018-06-27T07:49:34.160Z,25.93
2018-06-27T07:52:03.929Z,26.93
2018-06-27T07:54:37.579Z,26.47
2018-06-27T07:57:05.904Z,25.80
2018-06-27T07:59:34.314Z,27.33
2018-06-27T08:02:02.693Z,30.20
2018-06-27T08:04:31.878Z,25.40
2018-06-27T08:07:00.212Z,22.17
2018-06-27T08:09:28.505Z,26.87
2018-06-27T08:11:56.850Z,26.20
2018-06-27T08:14:25.178Z,29.97
2018-06-27T08:16:53.508Z,24.43
2018-06-27T08:19:22.798Z,27.80
2018-06-27T08:21:51.705Z,24.10
2018-06-27T08:24:20.061Z,23.77
2018-06-27T08:26:48.556Z,28.63
2018-06-27T08:29:18.088Z,24.63
2018-06-27T08:31:46.371Z,23.00
2018-06-27T08:34:14.677Z,25.40
2018-06-27T08:36:43.005Z,26.67
2018-06-27T08:39:11.605Z,27.10
2018-06-27T08:41:40.400Z,30.17
2018-06-27T08:44:09.236Z,28.23
2018-06-27T08:46:39.058Z,26.03
2018-06-27T08:49:07.402Z,23.80
2018-06-27T08:51:38.781Z,22.20
2018-06-27T08:54:07.129Z,26.40
2018-06-27T08:56:35.574Z,26.37
2018-06-27T08:59:04.479Z,26.67
2018-06-27T09:01:33.467Z,26.87
2018-06-27T09:04:01.859Z,25.03
2018-06-27T09:06:31.453Z,28.83
2018-06-27T09:09:06.981Z,23.53
2018-06-27T09:11:35.824Z,23.87
2018-06-27T09:14:04.238Z,26.23
2018-06-27T09:16:33.028Z,25.50
2018-06-27T09:19:02.098Z,26.07
2018-06-27T09:21:42.949Z,24.83
2018-06-27T09:24:11.327Z,23.97
2018-06-27T09:26:39.832Z,24.23
2018-06-27T09:29:08.176Z,27.83
2018-06-27T09:31:36.982Z,26.40
2018-06-27T09:34:05.392Z,31.90
2018-06-27T09:36:33.794Z,26.90
2018-06-27T09:39:02.138Z,24.53
2018-06-27T09:41:30.257Z,25.23
2018-06-27T09:43:58.786Z,21.87
2018-06-27T09:46:27.203Z,26.37
2018-06-27T09:48:55.586Z,24.23
2018-06-27T09:51:24.635Z,26.00
2018-06-27T09:53:54.110Z,25.53
2018-06-27T09:56:22.785Z,23.83
2018-06-27T09:58:51.741Z,29.73
2018-06-27T10:01:20.149Z,24.63
2018-06-27T10:03:48.597Z,23.77
2018-06-27T10:06:16.942Z,27.07
2018-06-27T10:08:45.274Z,22.53
2018-06-27T10:11:13.671Z,24.47
2018-06-27T10:13:42.022Z,23.87
2018-06-27T10:16:10.325Z,26.70
2018-06-27T10:18:38.621Z,24.33
2018-06-27T10:21:07.785Z,28.17
2018-06-27T10:23:36.650Z,22.50
2018-06-27T10:26:05.080Z,23.70
2018-06-27T10:28:33.258Z,23.47
2018-06-27T10:31:01.634Z,26.73
2018-06-27T10:33:29.982Z,25.03
2018-06-27T10:35:58.149Z,25.60
2018-06-27T10:38:26.492Z,27.20
2018-06-27T10:40:54.878Z,23.83
2018-06-27T10:43:23.223Z,23.80
2018-06-27T10:45:51.539Z,22.87
2018-06-27T10:48:20.738Z,24.23
2018-06-27T10:50:49.111Z,21.17
2018-06-27T10:53:17.429Z,23.97
2018-06-27T10:55:45.757Z,23.97
2018-06-27T10:58:14.145Z,24.43
2018-06-27T11:00:42.542Z,24.43
2018-06-27T11:03:10.875Z,25.70
2018-06-27T11:05:40.509Z,20.37
2018-06-27T11:08:10.584Z,27.30
2018-06-27T11:10:38.949Z,24.60
2018-06-27T11:13:07.318Z,24.70
2018-06-27T11:15:35.401Z,21.73
2018-06-27T11:18:03.766Z,25.77
2018-06-27T11:20:31.908Z,27.50
2018-06-27T11:23:00.254Z,24.37
2018-06-27T11:25:28.646Z,21.27
2018-06-27T11:27:58.726Z,21.50
2018-06-27T11:30:27.103Z,23.73
2018-06-27T11:32:56.208Z,23.93
2018-06-27T11:35:26.339Z,21.50
2018-06-27T11:37:54.767Z,21.87
2018-06-27T11:40:23.193Z,25.47
2018-06-27T11:42:51.546Z,22.10
2018-06-27T11:45:19.979Z,18.60
2018-06-27T11:47:48.873Z,21.30
2018-06-27T11:50:17.309Z,23.10
2018-06-27T11:52:45.818Z,21.73
2018-06-27T11:55:16.492Z,20.03
2018-06-27T11:57:45.557Z,23.23
2018-06-27T12:00:15.690Z,19.97
2018-06-27T12:02:44.116Z,22.90
2018-06-27T12:05:12.461Z,20.73
2018-06-27T12:07:40.921Z,21.33
2018-06-27T12:10:09.365Z,21.87
2018-06-27T12:12:37.722Z,21.23
2018-06-27T12:15:06.415Z,20.23
2018-06-27T12:17:35.277Z,17.70
2018-06-27T12:20:25.704Z,17.30
2018-06-27T12:22:54.154Z,20.27
2018-06-27T12:25:22.815Z,19.87
2018-06-27T12:27:51.858Z,19.73
2018-06-27T12:30:24.082Z,21.67
2018-06-27T12:32:53.046Z,18.60
2018-06-27T12:35:22.106Z,21.30
2018-06-27T12:37:50.969Z,17.63
2018-06-27T12:40:19.349Z,21.40
2018-06-27T12:42:48.286Z,24.13
2018-06-27T12:45:16.620Z,21.53
2018-06-27T12:47:44.965Z,24.60
2018-06-27T12:50:13.391Z,19.07
2018-06-27T12:52:41.813Z,22.40
2018-06-27T12:55:12.046Z,24.03
2018-06-27T12:57:41.082Z,20.67
2018-06-27T13:00:09.983Z,18.60
2018-06-27T13:02:38.318Z,18.67
2018-06-27T13:05:07.850Z,21.40
2018-06-27T13:07:36.294Z,20.93
2018-06-27T13:10:05.951Z,23.30
2018-06-27T13:12:34.354Z,19.37
2018-06-27T13:15:02.798Z,23.80
2018-06-27T13:17:31.141Z,21.90
2018-06-27T13:19:59.498Z,18.63
2018-06-27T13:22:27.845Z,17.30
2018-06-27T13:24:57.154Z,20.30
2018-06-27T13:27:25.576Z,24.73
2018-06-27T13:29:54.002Z,20.03
2018-06-27T13:32:22.362Z,19.03
2018-06-27T13:34:50.763Z,19.70
2018-06-27T13:37:19.129Z,19.77
2018-06-27T13:39:47.538Z,20.93
2018-06-27T13:42:16.095Z,18.70
2018-06-27T13:44:44.437Z,18.10
2018-06-27T13:47:13.952Z,22.03
2018-06-27T13:49:42.837Z,18.40
2018-06-27T13:52:11.111Z,22.03
2018-06-27T13:54:39.573Z,19.40
2018-06-27T13:57:08.457Z,16.97
2018-06-27T13:59:36.955Z,16.30
2018-06-27T14:02:05.425Z,16.03
2018-06-27T14:04:34.602Z,16.17
2018-06-27T14:07:03.029Z,17.63
2018-06-27T14:09:32.012Z,15.33
2018-06-27T14:12:00.476Z,20.37
2018-06-27T14:14:29.006Z,19.07
2018-06-27T14:16:57.543Z,22.00
2018-06-27T14:19:25.987Z,16.73
2018-06-27T14:21:54.533Z,19.67
2018-06-27T14:24:22.998Z,18.30
2018-06-27T14:26:51.567Z,20.43
2018-06-27T14:29:20.906Z,15.60
2018-06-27T14:31:49.707Z,17.30
2018-06-27T14:34:18.092Z,19.20
2018-06-27T14:36:46.532Z,19.07
2018-06-27T14:39:16.713Z,17.60
2018-06-27T14:41:46.178Z,19.57
2018-06-27T14:44:15.154Z,12.73
2018-06-27T14:46:43.405Z,16.47
2018-06-27T14:49:14.005Z,16.87
2018-06-27T14:51:42.590Z,20.40
2018-06-27T14:54:11.490Z,18.40
2018-06-27T14:56:39.903Z,16.23
2018-06-27T14:59:08.310Z,16.80
2018-06-27T15:01:36.890Z,15.43
2018-06-27T15:04:05.407Z,17.33
2018-06-27T15:06:33.602Z,14.47
2018-06-27T15:09:02.080Z,13.00
2018-06-27T15:11:30.537Z,16.27
2018-06-27T15:14:00.845Z,15.50
2018-06-27T15:16:29.338Z,12.90
2018-06-27T15:18:57.906Z,16.50
2018-06-27T15:21:26.429Z,16.00
2018-06-27T15:23:54.946Z,14.33
2018-06-27T15:26:24.228Z,15.10
2018-06-27T15:28:53.961Z,13.30
2018-06-27T15:31:22.442Z,12.93
2018-06-27T15:33:51.092Z,17.07
2018-06-27T15:36:19.889Z,13.97
2018-06-27T15:38:48.358Z,13.07
2018-06-27T15:41:16.744Z,14.60
2018-06-27T15:49:34.357Z,13.53
2018-06-27T15:52:02.801Z,18.63
2018-06-27T15:54:31.195Z,15.67
2018-06-27T15:56:59.636Z,11.50
2018-06-27T15:59:28.051Z,12.10
2018-06-27T16:01:56.429Z,11.97
2018-06-27T16:04:24.864Z,11.03
2018-06-27T16:06:53.239Z,17.30
2018-06-27T16:09:22.665Z,14.40
2018-06-27T16:11:51.155Z,12.87
2018-06-27T16:14:19.569Z,12.70
2018-06-27T16:16:47.969Z,15.90
2018-06-27T16:19:16.358Z,14.10
2018-06-27T16:21:44.690Z,22.30
2018-06-27T16:24:13.085Z,17.47
2018-06-27T16:26:42.730Z,12.63
2018-06-27T16:29:11.162Z,14.10
2018-06-27T16:31:39.656Z,13.80
2018-06-27T16:34:07.843Z,13.73
2018-06-27T16:36:36.323Z,12.67
2018-06-27T16:39:07.376Z,10.90
2018-06-27T16:41:35.798Z,18.23
2018-06-27T16:44:04.547Z,11.50
2018-06-27T16:46:32.910Z,13.93
2018-06-27T16:49:01.361Z,15.93
2018-06-27T16:51:29.962Z,12.70
2018-06-27T16:53:59.231Z,16.03
2018-06-27T16:56:27.628Z,14.03
2018-06-27T16:58:56.014Z,17.60
2018-06-27T17:01:24.649Z,16.83
2018-06-27T17:03:53.886Z,14.73
2018-06-27T17:06:22.826Z,15.10
2018-06-27T17:08:50.919Z,13.70
2018-06-27T17:11:19.878Z,11.67
2018-06-27T17:13:47.969Z,12.77
2018-06-27T17:16:16.342Z,14.97
2018-06-27T17:18:44.721Z,13.70
2018-06-27T17:21:13.137Z,16.50
2018-06-27T17:23:43.588Z,12.13
2018-06-27T17:26:14.343Z,12.13
2018-06-27T17:28:42.746Z,12.47
2018-06-27T17:31:11.104Z,17.13
2018-06-27T17:33:39.498Z,14.70
2018-06-27T17:36:08.021Z,13.97
2018-06-27T17:38:36.319Z,12.70
2018-06-27T17:41:04.652Z,11.17
2018-06-27T17:43:33.013Z,15.63
2018-06-27T17:46:01.318Z,12.07
2018-06-27T17:48:30.305Z,12.30
2018-06-27T17:50:58.607Z,12.00
2018-06-27T17:53:26.913Z,15.60
2018-06-27T17:55:55.212Z,12.07
2018-06-27T17:58:23.548Z,16.40
2018-06-27T18:00:51.845Z,9.23
2018-06-27T18:03:20.342Z,13.10
2018-06-27T18:05:49.667Z,12.90
2018-06-27T18:08:18.338Z,16.40
2018-06-27T18:10:47.206Z,12.03
2018-06-27T18:13:15.577Z,15.53
2018-06-27T18:15:44.015Z,14.13
2018-06-27T18:18:12.430Z,12.43
2018-06-27T18:20:40.772Z,13.97
2018-06-27T18:23:09.394Z,13.40
2018-06-27T18:25:37.773Z,14.57
2018-06-27T18:28:07.244Z,13.30
2018-06-27T18:30:35.684Z,12.93
2018-06-27T18:33:04.053Z,15.97
2018-06-27T18:35:33.593Z,13.93
2018-06-27T18:38:02.039Z,15.67
2018-06-27T18:40:30.623Z,15.73
2018-06-27T18:42:59.039Z,14.57
2018-06-27T18:45:29.485Z,13.57
2018-06-27T18:47:58.010Z,12.20
2018-06-27T18:50:26.995Z,12.43
2018-06-27T18:52:55.359Z,13.37
2018-06-27T18:55:24.435Z,13.10
2018-06-27T18:57:53.082Z,13.20
2018-06-27T19:00:21.135Z,13.27
2018-06-27T19:02:49.972Z,15.37
2018-06-27T19:05:18.307Z,12.20
2018-06-27T19:07:48.053Z,17.17
2018-06-27T19:10:16.606Z,12.67
2018-06-27T19:12:45.567Z,13.67
2018-06-27T19:15:15.074Z,14.13
2018-06-27T19:17:43.453Z,10.13
2018-06-27T19:20:12.133Z,13.07
2018-06-27T19:22:40.464Z,13.47
2018-06-27T19:25:08.813Z,14.63
2018-06-27T19:27:37.154Z,10.37
2018-06-27T19:30:05.650Z,12.00
2018-06-27T19:32:34.049Z,16.77
2018-06-27T19:35:02.376Z,11.43
2018-06-27T19:37:30.742Z,13.03
2018-06-27T19:39:59.102Z,13.47
2018-06-27T19:42:28.109Z,12.43
2018-06-27T19:44:57.382Z,11.63
2018-06-27T19:47:28.394Z,11.40
2018-06-27T19:49:56.845Z,13.10
2018-06-27T19:52:25.396Z,10.57
2018-06-27T19:54:53.706Z,12.30
2018-06-27T19:57:22.018Z,13.80
2018-06-27T19:59:50.899Z,11.70
2018-06-27T20:02:19.634Z,14.30
2018-06-27T20:04:49.345Z,11.37
2018-06-27T20:07:21.774Z,14.27
2018-06-27T20:09:50.217Z,11.93
2018-06-27T20:12:18.288Z,15.23
2018-06-27T20:14:46.972Z,13.27
2018-06-27T20:17:15.594Z,14.97
2018-06-27T20:19:51.640Z,16.07
2018-06-27T20:22:23.535Z,16.10
2018-06-27T20:25:03.560Z,16.50
2018-06-27T20:27:32.015Z,20.13
2018-06-27T20:30:00.459Z,19.40
2018-06-27T20:32:29.118Z,18.73
2018-06-27T20:34:57.493Z,19.53
2018-06-27T20:37:25.842Z,17.73
2018-06-27T20:39:54.990Z,18.23
2018-06-27T20:42:23.402Z,17.53
2018-06-27T20:44:52.316Z,17.27
2018-06-27T20:47:21.229Z,20.43
2018-06-27T20:49:49.282Z,21.77
2018-06-27T20:52:17.931Z,20.77
2018-06-27T20:54:46.814Z,20.90
2018-06-27T20:57:15.434Z,18.27
2018-06-27T20:59:44.581Z,19.87
2018-06-27T21:02:14.437Z,22.67
2018-06-27T21:04:42.547Z,18.33
2018-06-27T21:07:12.902Z,18.10
2018-06-27T21:09:42.143Z,21.42
2018-06-27T21:12:10.273Z,19.13
2018-06-27T21:14:38.647Z,25.57
2018-06-27T21:17:06.665Z,21.57
2018-06-27T21:19:35.045Z,18.57
2018-06-27T21:22:03.993Z,23.20
2018-06-27T21:24:32.374Z,22.90
2018-06-27T21:27:00.689Z,20.57
2018-06-27T21:29:29.043Z,17.07
2018-06-27T21:31:57.346Z,22.97
2018-06-27T21:34:25.653Z,20.60
2018-06-27T21:36:53.968Z,25.17
2018-06-27T21:39:22.925Z,19.43
2018-06-27T21:41:51.477Z,23.53
2018-06-27T21:44:22.479Z,23.20
2018-06-27T21:46:51.227Z,24.07
2018-06-27T21:49:20.266Z,24.73
2018-06-27T21:51:48.633Z,21.93
2018-06-27T21:54:17.769Z,26.70
2018-06-27T21:56:46.194Z,24.33
2018-06-27T21:59:14.534Z,21.17
2018-06-27T22:01:43.295Z,20.60
2018-06-27T22:04:11.594Z,19.13
2018-06-27T22:06:40.032Z,20.70
2018-06-27T22:09:09.820Z,23.57
2018-06-27T22:11:38.353Z,21.40
2018-06-27T22:14:06.678Z,24.77
2018-06-27T22:16:35.343Z,20.67
2018-06-27T22:19:03.437Z,23.97
2018-06-27T22:21:31.850Z,21.83
2018-06-27T22:24:02.866Z,22.87
2018-06-27T22:26:33.522Z,24.53
2018-06-27T22:29:02.166Z,21.30
2018-06-27T22:31:31.286Z,28.93
2018-06-27T22:34:07.990Z,23.43
2018-06-27T22:36:36.322Z,24.77
2018-06-27T22:39:10.717Z,25.27
2018-06-27T22:41:38.981Z,24.30
2018-06-27T22:44:08.482Z,23.57
2018-06-27T22:46:38.517Z,23.37
2018-06-27T22:49:06.837Z,17.97
2018-06-27T22:51:36.267Z,19.87
2018-06-27T22:54:04.706Z,22.57
2018-06-27T22:56:33.027Z,24.87
2018-06-27T22:59:01.342Z,21.30
2018-06-27T23:01:30.048Z,21.00
2018-06-27T23:04:00.511Z,20.97
2018-06-27T23:06:28.842Z,19.90
2018-06-27T23:08:57.108Z,22.07
2018-06-27T23:11:26.386Z,25.27
2018-06-27T23:13:55.013Z,20.10
2018-06-27T23:16:23.991Z,24.17
2018-06-27T23:18:57.264Z,21.67
2018-06-27T23:21:26.170Z,22.60
2018-06-27T23:23:55.356Z,22.00
2018-06-27T23:26:24.044Z,23.80
2018-06-27T23:28:53.710Z,18.97
2018-06-27T23:31:22.066Z,20.97
2018-06-27T23:33:50.591Z,24.18
2018-06-27T23:36:19.298Z,23.07
2018-06-27T23:38:47.629Z,21.20
2018-06-27T23:41:15.925Z,23.77
2018-06-27T23:43:44.325Z,24.93
2018-06-27T23:48:49.517Z,19.73
2018-06-27T23:51:18.138Z,23.17
2018-06-27T23:53:46.454Z,21.23
2018-06-27T23:56:14.788Z,25.30
2018-06-27T23:58:43.113Z,22.23
